createdAt,value
2018-07-15T00:00:19.479Z,0
2018-07-15T00:01:00.046Z,0
2018-07-15T00:01:40.608Z,0
2018-07-15T00:02:21.164Z,0
2018-07-15T00:03:01.747Z,0
2018-07-15T00:03:42.311Z,0
2018-07-15T00:04:22.886Z,0
2018-07-15T00:05:03.445Z,0
2018-07-15T00:05:44.011Z,0
2018-07-15T00:06:24.566Z,0
2018-07-15T00:07:05.127Z,0
2018-07-15T00:07:45.672Z,0
2018-07-15T00:08:26.230Z,0
2018-07-15T00:09:06.788Z,0
2018-07-15T00:09:47.352Z,0
2018-07-15T00:10:27.914Z,0
2018-07-15T00:11:08.497Z,0
2018-07-15T00:11:49.061Z,0
2018-07-15T00:12:29.629Z,0
2018-07-15T00:13:10.189Z,0
2018-07-15T00:13:50.763Z,0
2018-07-15T00:14:31.317Z,0
2018-07-15T00:15:11.894Z,0
2018-07-15T00:15:52.445Z,0
2018-07-15T00:16:33.012Z,0
2018-07-15T00:17:13.573Z,0
2018-07-15T00:17:54.129Z,0
2018-07-15T00:18:34.704Z,0
2018-07-15T00:19:15.255Z,0
2018-07-15T00:19:55.800Z,0
2018-07-15T00:20:36.374Z,0
2018-07-15T00:21:16.935Z,0
2018-07-15T00:21:57.501Z,0
2018-07-15T00:22:38.064Z,0
2018-07-15T00:23:18.626Z,0
2018-07-15T00:23:59.186Z,0
2018-07-15T00:24:39.746Z,0
2018-07-15T00:25:20.310Z,0
2018-07-15T00:26:00.883Z,0
2018-07-15T00:26:41.440Z,0
2018-07-15T00:27:22.017Z,0
2018-07-15T00:28:02.577Z,0
2018-07-15T00:28:43.731Z,0
2018-07-15T00:29:24.289Z,0
2018-07-15T00:30:04.861Z,0
2018-07-15T00:30:45.423Z,0
2018-07-15T00:31:25.956Z,0
2018-07-15T00:32:06.523Z,0
2018-07-15T00:32:47.084Z,0
2018-07-15T00:33:27.636Z,0
2018-07-15T00:34:08.196Z,0
2018-07-15T00:34:48.767Z,0
2018-07-15T00:35:29.328Z,0
2018-07-15T00:36:09.899Z,0
2018-07-15T00:36:50.471Z,0
2018-07-15T00:37:31.023Z,0
2018-07-15T00:38:11.582Z,0
2018-07-15T00:38:52.149Z,0
2018-07-15T00:39:32.717Z,0
2018-07-15T00:40:13.275Z,0
2018-07-15T00:40:53.852Z,0
2018-07-15T00:41:34.413Z,0
2018-07-15T00:42:14.982Z,0
2018-07-15T00:42:55.549Z,0
2018-07-15T00:43:36.107Z,0
2018-07-15T00:44:16.650Z,0
2018-07-15T00:44:57.210Z,0
2018-07-15T00:45:37.772Z,0
2018-07-15T00:46:18.322Z,0
2018-07-15T00:46:58.906Z,0
2018-07-15T00:47:39.456Z,0
2018-07-15T00:48:20.011Z,0
2018-07-15T00:49:00.575Z,0
2018-07-15T00:49:41.134Z,0
2018-07-15T00:50:21.696Z,0
2018-07-15T00:51:02.261Z,0
2018-07-15T00:51:42.819Z,0
2018-07-15T00:52:23.392Z,0
2018-07-15T00:53:03.963Z,0
2018-07-15T00:53:44.537Z,0
2018-07-15T00:54:25.109Z,0
2018-07-15T00:55:05.668Z,0
2018-07-15T00:55:46.227Z,0
2018-07-15T00:56:26.805Z,0
2018-07-15T00:57:07.357Z,0
2018-07-15T00:57:47.946Z,0
2018-07-15T00:58:28.516Z,0
2018-07-15T00:59:09.073Z,0
2018-07-15T00:59:49.634Z,0
2018-07-15T01:00:30.201Z,0
2018-07-15T01:01:10.769Z,0
2018-07-15T01:01:51.407Z,0
2018-07-15T01:02:31.978Z,0
2018-07-15T01:03:12.554Z,0
2018-07-15T01:03:53.127Z,0
2018-07-15T01:04:33.673Z,0
2018-07-15T01:05:14.230Z,0
2018-07-15T01:05:54.782Z,0
2018-07-15T01:06:35.350Z,0
2018-07-15T01:07:15.912Z,0
2018-07-15T01:07:56.484Z,0
2018-07-15T01:08:37.057Z,0
2018-07-15T01:09:17.633Z,0
2018-07-15T01:09:58.206Z,0
2018-07-15T01:10:38.763Z,0
2018-07-15T01:11:19.335Z,0
2018-07-15T01:11:59.888Z,0
2018-07-15T01:12:40.454Z,0
2018-07-15T01:13:21.023Z,0
2018-07-15T01:14:01.610Z,0
2018-07-15T01:14:42.186Z,0
2018-07-15T01:15:22.745Z,0
2018-07-15T01:16:03.317Z,0
2018-07-15T01:16:43.873Z,0
2018-07-15T01:17:24.442Z,0
2018-07-15T01:18:05.024Z,0
2018-07-15T01:18:45.582Z,0
2018-07-15T01:19:26.145Z,0
2018-07-15T01:20:06.724Z,0
2018-07-15T01:20:47.291Z,0
2018-07-15T01:21:27.866Z,0
2018-07-15T01:22:08.429Z,0
2018-07-15T01:22:48.998Z,0
2018-07-15T01:23:29.563Z,0
2018-07-15T01:24:10.132Z,0
2018-07-15T01:24:50.695Z,0
2018-07-15T01:25:31.243Z,0
2018-07-15T01:26:11.801Z,0
2018-07-15T01:26:52.352Z,0
2018-07-15T01:27:32.912Z,0
2018-07-15T01:28:13.489Z,0
2018-07-15T01:28:54.068Z,0
2018-07-15T01:29:34.629Z,0
2018-07-15T01:30:15.191Z,0
2018-07-15T01:30:55.743Z,0
2018-07-15T01:31:36.306Z,0
2018-07-15T01:32:16.849Z,0
2018-07-15T01:32:57.398Z,0
2018-07-15T01:33:37.967Z,0
2018-07-15T01:34:18.543Z,0
2018-07-15T01:34:59.103Z,0
2018-07-15T01:35:39.682Z,0
2018-07-15T01:36:20.245Z,0
2018-07-15T01:37:00.805Z,0
2018-07-15T01:37:41.356Z,0
2018-07-15T01:38:21.902Z,0
2018-07-15T01:39:02.466Z,0
2018-07-15T01:39:43.052Z,0
2018-07-15T01:40:23.639Z,0
2018-07-15T01:41:04.198Z,0
2018-07-15T01:41:44.753Z,0
2018-07-15T01:42:25.302Z,0
2018-07-15T01:43:05.885Z,0
2018-07-15T01:43:46.460Z,0
2018-07-15T01:44:27.030Z,0
2018-07-15T01:45:07.598Z,0
2018-07-15T01:45:48.162Z,0
2018-07-15T01:46:28.706Z,0
2018-07-15T01:47:09.272Z,0
2018-07-15T01:47:49.848Z,0
2018-07-15T01:48:30.415Z,0
2018-07-15T01:49:10.986Z,0
2018-07-15T01:49:51.546Z,0
2018-07-15T01:50:32.102Z,0
2018-07-15T01:51:12.662Z,0
2018-07-15T01:51:53.226Z,0
2018-07-15T01:52:33.782Z,0
2018-07-15T01:53:14.330Z,0
2018-07-15T01:53:54.891Z,0
2018-07-15T01:54:35.452Z,0
2018-07-15T01:55:15.974Z,0
2018-07-15T01:55:56.513Z,0
2018-07-15T01:56:37.075Z,0
2018-07-15T01:57:17.658Z,0
2018-07-15T01:57:58.211Z,0
2018-07-15T01:58:38.776Z,0
2018-07-15T01:59:19.327Z,0
2018-07-15T01:59:59.896Z,0
2018-07-15T02:00:40.443Z,0
2018-07-15T02:01:21.008Z,0
2018-07-15T02:02:01.576Z,0
2018-07-15T02:02:42.135Z,0
2018-07-15T02:03:22.684Z,0
2018-07-15T02:04:03.245Z,0
2018-07-15T02:04:43.818Z,0
2018-07-15T02:05:24.360Z,0
2018-07-15T02:06:04.933Z,0
2018-07-15T02:06:45.513Z,0
2018-07-15T02:07:26.061Z,0
2018-07-15T02:08:06.630Z,0
2018-07-15T02:08:47.189Z,0
2018-07-15T02:09:27.765Z,0
2018-07-15T02:10:08.374Z,0
2018-07-15T02:10:48.917Z,0
2018-07-15T02:11:29.474Z,0
2018-07-15T02:12:10.023Z,0
2018-07-15T02:12:50.588Z,0
2018-07-15T02:13:31.149Z,0
2018-07-15T02:14:11.698Z,0
2018-07-15T02:14:52.276Z,0
2018-07-15T02:15:32.843Z,0
2018-07-15T02:16:13.398Z,0
2018-07-15T02:16:53.967Z,0
2018-07-15T02:17:34.518Z,0
2018-07-15T02:18:15.076Z,0
2018-07-15T02:18:55.647Z,0
2018-07-15T02:19:36.200Z,0
2018-07-15T02:20:16.762Z,0
2018-07-15T02:20:57.316Z,0
2018-07-15T02:21:37.868Z,0
2018-07-15T02:22:18.433Z,0
2018-07-15T02:22:59.002Z,0
2018-07-15T02:23:39.588Z,0
2018-07-15T02:24:20.161Z,0
2018-07-15T02:25:00.699Z,0
2018-07-15T02:25:41.261Z,0
2018-07-15T02:26:21.811Z,0
2018-07-15T02:27:02.376Z,0
2018-07-15T02:27:42.927Z,0
2018-07-15T02:28:23.499Z,0
2018-07-15T02:29:04.062Z,0
2018-07-15T02:29:44.632Z,0
2018-07-15T02:30:25.206Z,0
2018-07-15T02:31:05.771Z,0
2018-07-15T02:31:46.327Z,0
2018-07-15T02:32:26.895Z,0
2018-07-15T02:33:07.452Z,0
2018-07-15T02:33:48.015Z,0
2018-07-15T02:34:28.596Z,0
2018-07-15T02:35:09.157Z,0
2018-07-15T02:35:49.704Z,0
2018-07-15T02:36:30.277Z,0
2018-07-15T02:37:10.832Z,0
2018-07-15T02:37:51.394Z,0
2018-07-15T02:38:31.952Z,0
2018-07-15T02:39:12.503Z,0
2018-07-15T02:39:53.067Z,0
2018-07-15T02:40:33.633Z,0
2018-07-15T02:41:14.195Z,0
2018-07-15T02:41:54.763Z,0
2018-07-15T02:42:35.315Z,0
2018-07-15T02:43:15.874Z,0
2018-07-15T02:43:56.466Z,0
2018-07-15T02:44:37.011Z,0
2018-07-15T02:45:17.573Z,0
2018-07-15T02:45:58.133Z,0
2018-07-15T02:46:38.765Z,0
2018-07-15T02:47:19.333Z,0
2018-07-15T02:47:59.898Z,0
2018-07-15T02:48:40.466Z,0
2018-07-15T02:49:21.038Z,0
2018-07-15T02:50:01.595Z,0
2018-07-15T02:50:42.146Z,0
2018-07-15T02:51:22.713Z,0
2018-07-15T02:52:03.287Z,0
2018-07-15T02:52:43.839Z,0
2018-07-15T02:53:24.404Z,0
2018-07-15T02:54:04.972Z,0
2018-07-15T02:54:45.525Z,0
2018-07-15T02:55:26.086Z,0
2018-07-15T02:56:06.650Z,0
2018-07-15T02:56:47.196Z,0
2018-07-15T02:57:27.751Z,0
2018-07-15T02:58:08.326Z,0
2018-07-15T02:58:48.889Z,0
2018-07-15T02:59:29.451Z,0
2018-07-15T03:00:10.018Z,0
2018-07-15T03:00:50.583Z,0
2018-07-15T03:01:31.133Z,0
2018-07-15T03:02:11.677Z,0
2018-07-15T03:02:52.234Z,0
2018-07-15T03:03:32.788Z,0
2018-07-15T03:04:13.390Z,0
2018-07-15T03:04:53.952Z,0
2018-07-15T03:05:34.562Z,0
2018-07-15T03:06:15.118Z,0
2018-07-15T03:06:55.687Z,0
2018-07-15T03:07:36.245Z,0
2018-07-15T03:08:16.814Z,0
2018-07-15T03:08:57.377Z,5
2018-07-15T03:09:37.935Z,5
2018-07-15T03:10:18.517Z,5
2018-07-15T03:10:59.073Z,5
2018-07-15T03:11:39.643Z,5
2018-07-15T03:12:20.216Z,5
2018-07-15T03:13:00.792Z,5
2018-07-15T03:13:41.355Z,5
2018-07-15T03:14:21.929Z,5
2018-07-15T03:15:02.500Z,5
2018-07-15T03:15:43.068Z,5
2018-07-15T03:16:23.637Z,5
2018-07-15T03:17:04.235Z,5
2018-07-15T03:17:44.775Z,5
2018-07-15T03:18:25.342Z,5
2018-07-15T03:19:05.906Z,5
2018-07-15T03:19:46.498Z,5
2018-07-15T03:20:27.067Z,5
2018-07-15T03:21:07.620Z,10
2018-07-15T03:21:48.179Z,10
2018-07-15T03:22:28.739Z,10
2018-07-15T03:23:09.289Z,10
2018-07-15T03:23:49.872Z,10
2018-07-15T03:24:30.396Z,10
2018-07-15T03:25:10.967Z,10
2018-07-15T03:25:51.532Z,10
2018-07-15T03:26:32.102Z,10
2018-07-15T03:27:12.668Z,10
2018-07-15T03:27:53.232Z,10
2018-07-15T03:28:33.795Z,10
2018-07-15T03:29:14.340Z,10
2018-07-15T03:29:54.903Z,10
2018-07-15T03:30:35.484Z,10
2018-07-15T03:31:16.045Z,10
2018-07-15T03:31:56.612Z,15
2018-07-15T03:32:37.175Z,15
2018-07-15T03:33:17.735Z,15
2018-07-15T03:33:58.303Z,15
2018-07-15T03:34:38.879Z,15
2018-07-15T03:35:19.455Z,15
2018-07-15T03:36:00.009Z,15
2018-07-15T03:36:40.561Z,15
2018-07-15T03:37:21.116Z,15
2018-07-15T03:38:01.659Z,15
2018-07-15T03:38:42.225Z,15
2018-07-15T03:39:22.792Z,15
2018-07-15T03:40:03.337Z,15
2018-07-15T03:40:43.900Z,15
2018-07-15T03:41:24.462Z,20
2018-07-15T03:42:05.021Z,20
2018-07-15T03:42:45.586Z,20
2018-07-15T03:43:26.138Z,20
2018-07-15T03:44:06.722Z,20
2018-07-15T03:44:47.281Z,20
2018-07-15T03:45:27.841Z,20
2018-07-15T03:46:08.399Z,20
2018-07-15T03:46:48.954Z,20
2018-07-15T03:47:29.506Z,20
2018-07-15T03:48:10.072Z,20
2018-07-15T03:48:50.640Z,25
2018-07-15T03:49:31.201Z,25
2018-07-15T03:50:11.780Z,25
2018-07-15T03:50:52.356Z,25
2018-07-15T03:51:32.916Z,25
2018-07-15T03:52:13.492Z,25
2018-07-15T03:52:54.066Z,25
2018-07-15T03:53:34.622Z,25
2018-07-15T03:54:15.253Z,25
2018-07-15T03:54:55.813Z,30
2018-07-15T03:55:36.384Z,30
2018-07-15T03:56:16.958Z,30
2018-07-15T03:56:57.517Z,35
2018-07-15T03:57:38.076Z,35
2018-07-15T03:58:18.634Z,35
2018-07-15T03:58:59.187Z,35
2018-07-15T03:59:39.748Z,35
2018-07-15T04:00:20.317Z,40
2018-07-15T04:01:00.890Z,40
2018-07-15T04:01:41.473Z,40
2018-07-15T04:02:22.052Z,40
2018-07-15T04:03:02.633Z,40
2018-07-15T04:03:43.194Z,40
2018-07-15T04:04:23.753Z,40
2018-07-15T04:05:04.310Z,40
2018-07-15T04:05:44.870Z,40
2018-07-15T04:06:25.468Z,40
2018-07-15T04:07:06.056Z,40
2018-07-15T04:07:46.660Z,40
2018-07-15T04:08:27.282Z,40
2018-07-15T04:09:07.786Z,40
2018-07-15T04:09:48.351Z,40
2018-07-15T04:10:28.930Z,35
2018-07-15T04:11:09.500Z,35
2018-07-15T04:11:50.062Z,35
2018-07-15T04:12:30.609Z,35
2018-07-15T04:13:11.168Z,40
2018-07-15T04:13:51.713Z,40
2018-07-15T04:14:32.259Z,40
2018-07-15T04:15:12.818Z,45
2018-07-15T04:15:53.394Z,45
2018-07-15T04:16:33.951Z,45
2018-07-15T04:17:14.518Z,50
2018-07-15T04:17:55.075Z,50
2018-07-15T04:18:35.640Z,50
2018-07-15T04:19:16.206Z,50
2018-07-15T04:19:56.766Z,50
2018-07-15T04:20:37.310Z,50
2018-07-15T04:21:17.867Z,50
2018-07-15T04:21:58.417Z,50
2018-07-15T04:22:38.989Z,50
2018-07-15T04:23:19.544Z,50
2018-07-15T04:24:00.107Z,50
2018-07-15T04:24:40.667Z,50
2018-07-15T04:25:21.233Z,55
2018-07-15T04:26:01.795Z,55
2018-07-15T04:26:42.356Z,55
2018-07-15T04:27:22.899Z,55
2018-07-15T04:28:03.471Z,55
2018-07-15T04:28:44.026Z,55
2018-07-15T04:29:24.604Z,55
2018-07-15T04:30:05.181Z,55
2018-07-15T04:30:45.755Z,55
2018-07-15T04:31:26.315Z,55
2018-07-15T04:32:06.879Z,55
2018-07-15T04:32:47.453Z,60
2018-07-15T04:33:28.019Z,60
2018-07-15T04:34:08.611Z,60
2018-07-15T04:34:49.158Z,60
2018-07-15T04:35:29.725Z,65
2018-07-15T04:36:10.293Z,65
2018-07-15T04:36:50.847Z,70
2018-07-15T04:37:31.411Z,75
2018-07-15T04:38:11.964Z,80
2018-07-15T04:38:52.528Z,80
2018-07-15T04:39:33.078Z,80
2018-07-15T04:40:13.651Z,80
2018-07-15T04:40:54.206Z,80
2018-07-15T04:41:34.778Z,80
2018-07-15T04:42:15.343Z,80
2018-07-15T04:42:55.897Z,80
2018-07-15T04:43:36.459Z,80
2018-07-15T04:44:17.037Z,85
2018-07-15T04:44:57.592Z,90
2018-07-15T04:45:38.163Z,90
2018-07-15T04:46:18.727Z,100
2018-07-15T04:46:59.297Z,100
2018-07-15T04:47:39.854Z,100
2018-07-15T04:48:20.424Z,100
2018-07-15T04:49:00.977Z,105
2018-07-15T04:49:41.551Z,105
2018-07-15T04:50:22.107Z,110
2018-07-15T04:51:02.668Z,115
2018-07-15T04:51:43.216Z,120
2018-07-15T04:52:23.793Z,120
2018-07-15T04:53:04.362Z,120
2018-07-15T04:53:44.916Z,120
2018-07-15T04:54:25.476Z,115
2018-07-15T04:55:06.050Z,115
2018-07-15T04:55:46.605Z,115
2018-07-15T04:56:27.165Z,110
2018-07-15T04:57:07.726Z,115
2018-07-15T04:57:48.291Z,115
2018-07-15T04:58:28.847Z,115
2018-07-15T04:59:09.411Z,115
2018-07-15T04:59:49.964Z,125
2018-07-15T05:00:30.558Z,130
2018-07-15T05:01:11.131Z,135
2018-07-15T05:01:51.716Z,135
2018-07-15T05:02:32.250Z,125
2018-07-15T05:03:12.825Z,120
2018-07-15T05:03:53.384Z,115
2018-07-15T05:04:33.944Z,120
2018-07-15T05:05:14.524Z,125
2018-07-15T05:05:55.096Z,125
2018-07-15T05:06:35.657Z,135
2018-07-15T05:07:16.221Z,135
2018-07-15T05:07:56.775Z,135
2018-07-15T05:08:37.337Z,140
2018-07-15T05:09:17.891Z,145
2018-07-15T05:09:58.453Z,150
2018-07-15T05:10:39.024Z,150
2018-07-15T05:11:19.665Z,150
2018-07-15T05:12:00.139Z,145
2018-07-15T05:12:40.727Z,155
2018-07-15T05:13:21.284Z,160
2018-07-15T05:14:01.833Z,165
2018-07-15T05:14:42.391Z,165
2018-07-15T05:15:22.942Z,165
2018-07-15T05:16:03.508Z,160
2018-07-15T05:16:44.079Z,160
2018-07-15T05:17:24.655Z,175
2018-07-15T05:18:05.208Z,180
2018-07-15T05:18:45.765Z,175
2018-07-15T05:19:26.336Z,180
2018-07-15T05:20:06.894Z,180
2018-07-15T05:20:47.478Z,175
2018-07-15T05:21:28.045Z,185
2018-07-15T05:22:08.608Z,185
2018-07-15T05:22:49.166Z,185
2018-07-15T05:23:29.728Z,200
2018-07-15T05:24:10.306Z,190
2018-07-15T05:24:50.874Z,195
2018-07-15T05:25:31.460Z,200
2018-07-15T05:26:12.006Z,190
2018-07-15T05:26:52.580Z,185
2018-07-15T05:27:33.148Z,185
2018-07-15T05:28:13.708Z,195
2018-07-15T05:28:54.261Z,210
2018-07-15T05:29:34.821Z,225
2018-07-15T05:30:15.424Z,225
2018-07-15T05:30:55.986Z,215
2018-07-15T05:31:36.545Z,210
2018-07-15T05:32:17.111Z,200
2018-07-15T05:32:57.664Z,200
2018-07-15T05:33:38.233Z,215
2018-07-15T05:34:18.802Z,230
2018-07-15T05:34:59.404Z,525
2018-07-15T05:35:39.928Z,970
2018-07-15T05:36:20.496Z,1350
2018-07-15T05:37:01.062Z,1410
2018-07-15T05:37:41.626Z,1395
2018-07-15T05:38:22.184Z,1325
2018-07-15T05:39:02.756Z,1360
2018-07-15T05:39:43.323Z,1425
2018-07-15T05:40:23.883Z,1445
2018-07-15T05:41:04.449Z,1435
2018-07-15T05:41:45.026Z,1315
2018-07-15T05:42:25.592Z,1270
2018-07-15T05:43:06.166Z,1415
2018-07-15T05:43:46.748Z,1480
2018-07-15T05:44:27.305Z,1435
2018-07-15T05:45:07.873Z,1525
2018-07-15T05:45:48.431Z,1585
2018-07-15T05:46:28.988Z,1600
2018-07-15T05:47:09.570Z,1540
2018-07-15T05:47:50.142Z,1540
2018-07-15T05:48:30.710Z,1560
2018-07-15T05:49:11.275Z,1520
2018-07-15T05:49:51.841Z,1430
2018-07-15T05:50:32.407Z,1495
2018-07-15T05:51:12.986Z,1560
2018-07-15T05:51:53.617Z,1555
2018-07-15T05:52:34.187Z,1575
2018-07-15T05:53:14.769Z,1520
2018-07-15T05:53:55.329Z,1490
2018-07-15T05:54:35.889Z,1505
2018-07-15T05:55:16.441Z,1515
2018-07-15T05:55:57.019Z,1475
2018-07-15T05:56:37.595Z,1515
2018-07-15T05:57:18.163Z,1525
2018-07-15T05:57:58.788Z,1625
2018-07-15T05:58:39.297Z,1570
2018-07-15T05:59:19.862Z,1620
2018-07-15T06:00:00.436Z,1655
2018-07-15T06:00:41.038Z,1660
2018-07-15T06:01:21.616Z,1660
2018-07-15T06:02:02.185Z,1600
2018-07-15T06:02:42.764Z,1615
2018-07-15T06:03:23.408Z,1605
2018-07-15T06:04:03.923Z,1720
2018-07-15T06:04:44.483Z,1780
2018-07-15T06:05:25.062Z,1770
2018-07-15T06:06:05.638Z,1680
2018-07-15T06:06:46.213Z,1680
2018-07-15T06:07:26.762Z,1705
2018-07-15T06:08:07.322Z,1700
2018-07-15T06:08:47.890Z,1635
2018-07-15T06:09:28.478Z,1630
2018-07-15T06:10:09.047Z,1650
2018-07-15T06:10:49.696Z,1700
2018-07-15T06:11:30.184Z,1735
2018-07-15T06:12:10.767Z,1825
2018-07-15T06:12:51.345Z,1815
2018-07-15T06:13:31.919Z,1840
2018-07-15T06:14:12.480Z,1790
2018-07-15T06:14:53.056Z,1780
2018-07-15T06:15:33.655Z,1805
2018-07-15T06:16:14.234Z,1790
2018-07-15T06:16:54.807Z,1715
2018-07-15T06:17:35.589Z,1675
2018-07-15T06:18:16.166Z,1705
2018-07-15T06:18:56.733Z,1790
2018-07-15T06:19:37.373Z,1880
2018-07-15T06:20:17.959Z,1840
2018-07-15T06:20:58.589Z,1780
2018-07-15T06:21:39.172Z,1725
2018-07-15T06:22:19.726Z,1765
2018-07-15T06:23:00.312Z,1790
2018-07-15T06:23:41.012Z,1780
2018-07-15T06:24:21.539Z,1790
2018-07-15T06:25:02.112Z,1835
2018-07-15T06:25:42.724Z,1870
2018-07-15T06:26:23.291Z,1915
2018-07-15T06:27:03.838Z,1915
2018-07-15T06:27:44.403Z,1915
2018-07-15T06:28:24.992Z,1960
2018-07-15T06:29:05.566Z,1900
2018-07-15T06:29:46.134Z,1930
2018-07-15T06:30:26.710Z,1910
2018-07-15T06:31:07.326Z,1870
2018-07-15T06:31:47.862Z,1895
2018-07-15T06:32:28.417Z,1940
2018-07-15T06:33:08.988Z,1880
2018-07-15T06:33:49.564Z,1800
2018-07-15T06:34:30.129Z,1835
2018-07-15T06:35:10.711Z,1840
2018-07-15T06:35:51.296Z,1800
2018-07-15T06:36:31.876Z,1845
2018-07-15T06:37:12.440Z,1975
2018-07-15T06:37:53.055Z,1980
2018-07-15T06:38:33.631Z,1915
2018-07-15T06:39:14.212Z,1925
2018-07-15T06:39:54.938Z,1875
2018-07-15T06:40:35.512Z,1855
2018-07-15T06:41:16.086Z,1815
2018-07-15T06:41:56.673Z,1855
2018-07-15T06:42:37.250Z,1830
2018-07-15T06:43:17.852Z,1885
2018-07-15T06:43:58.417Z,1935
2018-07-15T06:44:38.995Z,1875
2018-07-15T06:45:19.572Z,1855
2018-07-15T06:46:00.170Z,1805
2018-07-15T06:46:40.744Z,1750
2018-07-15T06:47:22.145Z,1790
2018-07-15T06:48:02.733Z,1875
2018-07-15T06:48:43.313Z,1960
2018-07-15T06:49:24.024Z,1925
2018-07-15T06:50:04.467Z,1885
2018-07-15T06:50:45.047Z,2015
2018-07-15T06:51:25.625Z,2005
2018-07-15T06:52:06.181Z,2030
2018-07-15T06:52:46.764Z,2015
2018-07-15T06:53:27.320Z,2030
2018-07-15T06:54:07.953Z,1975
2018-07-15T06:54:48.452Z,1945
2018-07-15T06:55:29.026Z,1950
2018-07-15T06:56:09.592Z,1950
2018-07-15T06:56:50.180Z,2000
2018-07-15T06:57:30.781Z,2035
2018-07-15T06:58:11.365Z,2005
2018-07-15T06:58:51.990Z,2010
2018-07-15T06:59:32.663Z,2140
2018-07-15T07:00:13.224Z,2095
2018-07-15T07:00:53.769Z,1980
2018-07-15T07:01:34.469Z,1920
2018-07-15T07:02:14.969Z,2025
2018-07-15T07:02:55.536Z,2000
2018-07-15T07:03:36.211Z,1975
2018-07-15T07:04:16.819Z,1985
2018-07-15T07:04:57.458Z,2015
2018-07-15T07:05:38.040Z,1920
2018-07-15T07:06:18.591Z,1945
2018-07-15T07:06:59.222Z,1960
2018-07-15T07:07:39.798Z,1990
2018-07-15T07:08:20.452Z,2030
2018-07-15T07:09:01.026Z,1960
2018-07-15T07:09:41.593Z,1885
2018-07-15T07:10:22.152Z,1800
2018-07-15T07:11:02.699Z,1800
2018-07-15T07:11:43.263Z,1755
2018-07-15T07:12:23.843Z,1675
2018-07-15T07:13:04.417Z,1640
2018-07-15T07:13:44.975Z,1575
2018-07-15T07:14:25.562Z,1485
2018-07-15T07:15:06.109Z,1385
2018-07-15T07:15:46.667Z,1285
2018-07-15T07:16:27.225Z,1225
2018-07-15T07:17:07.787Z,1090
2018-07-15T07:17:48.357Z,990
2018-07-15T07:18:28.900Z,920
2018-07-15T07:19:09.466Z,880
2018-07-15T07:19:50.027Z,830
2018-07-15T07:20:30.663Z,795
2018-07-15T07:21:11.167Z,750
2018-07-15T07:21:51.734Z,705
2018-07-15T07:22:32.313Z,670
2018-07-15T07:23:12.886Z,660
2018-07-15T07:23:53.463Z,655
2018-07-15T07:24:34.034Z,655
2018-07-15T07:25:14.607Z,645
2018-07-15T07:25:55.191Z,630
2018-07-15T07:26:35.762Z,630
2018-07-15T07:27:16.343Z,620
2018-07-15T07:27:56.914Z,605
2018-07-15T07:28:37.491Z,605
2018-07-15T07:29:18.041Z,605
2018-07-15T07:29:58.622Z,600
2018-07-15T07:30:39.203Z,605
2018-07-15T07:31:19.796Z,600
2018-07-15T07:32:00.375Z,595
2018-07-15T07:32:40.955Z,590
2018-07-15T07:33:21.532Z,590
2018-07-15T07:34:02.110Z,590
2018-07-15T07:34:42.689Z,595
2018-07-15T07:35:23.276Z,605
2018-07-15T07:36:03.848Z,515
2018-07-15T07:36:44.417Z,250
2018-07-15T07:37:24.988Z,620
2018-07-15T07:38:05.551Z,270
2018-07-15T07:38:46.139Z,520
2018-07-15T07:39:26.717Z,600
2018-07-15T07:40:07.308Z,600
2018-07-15T07:40:47.870Z,605
2018-07-15T07:41:28.449Z,595
2018-07-15T07:42:09.042Z,570
2018-07-15T07:42:49.639Z,565
2018-07-15T07:43:30.184Z,560
2018-07-15T07:44:10.778Z,555
2018-07-15T07:44:51.346Z,555
2018-07-15T07:45:31.911Z,550
2018-07-15T07:46:12.489Z,535
2018-07-15T07:46:53.070Z,540
2018-07-15T07:47:33.638Z,535
2018-07-15T07:48:14.227Z,535
2018-07-15T07:48:54.820Z,530
2018-07-15T07:49:35.404Z,530
2018-07-15T07:50:15.975Z,230
2018-07-15T07:50:56.519Z,530
2018-07-15T07:51:37.105Z,530
2018-07-15T07:52:17.696Z,525
2018-07-15T07:52:58.248Z,525
2018-07-15T07:53:38.821Z,520
2018-07-15T07:54:19.402Z,525
2018-07-15T07:54:59.985Z,520
2018-07-15T07:55:40.554Z,530
2018-07-15T07:56:21.126Z,535
2018-07-15T07:57:01.683Z,545
2018-07-15T07:57:42.257Z,545
2018-07-15T07:58:22.847Z,540
2018-07-15T07:59:03.417Z,545
2018-07-15T07:59:43.978Z,535
2018-07-15T08:00:24.571Z,525
2018-07-15T08:01:05.147Z,535
2018-07-15T08:01:45.714Z,525
2018-07-15T08:02:26.266Z,510
2018-07-15T08:03:06.838Z,505
2018-07-15T08:03:47.424Z,500
2018-07-15T08:04:28.000Z,480
2018-07-15T08:05:08.572Z,455
2018-07-15T08:05:49.152Z,430
2018-07-15T08:06:29.739Z,400
2018-07-15T08:07:10.329Z,375
2018-07-15T08:07:50.909Z,375
2018-07-15T08:08:31.476Z,370
2018-07-15T08:09:12.045Z,365
2018-07-15T08:09:52.630Z,355
2018-07-15T08:10:33.201Z,350
2018-07-15T08:11:13.767Z,350
2018-07-15T08:11:54.334Z,345
2018-07-15T08:12:34.915Z,340
2018-07-15T08:13:15.496Z,340
2018-07-15T08:13:56.075Z,345
2018-07-15T08:14:36.648Z,340
2018-07-15T08:15:17.276Z,335
2018-07-15T08:15:57.800Z,335
2018-07-15T08:16:38.365Z,335
2018-07-15T08:17:18.933Z,335
2018-07-15T08:17:59.488Z,330
2018-07-15T08:18:40.043Z,325
2018-07-15T08:19:20.650Z,320
2018-07-15T08:20:01.211Z,315
2018-07-15T08:20:41.763Z,320
2018-07-15T08:21:22.332Z,320
2018-07-15T08:22:02.926Z,315
2018-07-15T08:22:43.662Z,315
2018-07-15T08:23:24.196Z,315
2018-07-15T08:24:04.766Z,315
2018-07-15T08:24:45.341Z,290
2018-07-15T08:25:25.910Z,200
2018-07-15T08:26:06.497Z,215
2018-07-15T08:26:47.068Z,295
2018-07-15T08:27:27.622Z,245
2018-07-15T08:28:08.273Z,240
2018-07-15T08:28:48.777Z,180
2018-07-15T08:29:29.364Z,210
2018-07-15T08:30:09.938Z,300
2018-07-15T08:30:50.500Z,185
2018-07-15T08:31:31.084Z,195
2018-07-15T08:32:11.641Z,295
2018-07-15T08:32:52.218Z,170
2018-07-15T08:33:32.792Z,160
2018-07-15T08:34:13.385Z,180
2018-07-15T08:34:54.032Z,190
2018-07-15T08:35:34.545Z,300
2018-07-15T08:36:15.116Z,290
2018-07-15T08:36:55.700Z,295
2018-07-15T08:37:36.268Z,300
2018-07-15T08:38:16.837Z,195
2018-07-15T08:38:57.393Z,185
2018-07-15T08:39:37.976Z,170
2018-07-15T08:40:18.540Z,165
2018-07-15T08:40:59.111Z,205
2018-07-15T08:41:39.676Z,195
2018-07-15T08:42:20.276Z,195
2018-07-15T08:43:00.853Z,255
2018-07-15T08:43:41.427Z,190
2018-07-15T08:44:22.000Z,275
2018-07-15T08:45:02.585Z,270
2018-07-15T08:45:43.135Z,260
2018-07-15T08:46:23.738Z,250
2018-07-15T08:47:04.305Z,245
2018-07-15T08:47:45.231Z,245
2018-07-15T08:48:26.286Z,240
2018-07-15T08:49:06.842Z,235
2018-07-15T08:49:47.427Z,230
2018-07-15T08:50:28.000Z,225
2018-07-15T08:51:08.577Z,220
2018-07-15T08:51:49.147Z,225
2018-07-15T08:52:29.711Z,225
2018-07-15T08:53:10.279Z,235
2018-07-15T08:53:50.884Z,215
2018-07-15T08:54:31.459Z,240
2018-07-15T08:55:12.023Z,205
2018-07-15T08:55:52.620Z,170
2018-07-15T08:56:33.180Z,165
2018-07-15T08:57:13.775Z,170
2018-07-15T08:57:54.402Z,165
2018-07-15T08:58:34.967Z,170
2018-07-15T08:59:15.625Z,165
2018-07-15T08:59:56.199Z,195
2018-07-15T09:00:36.756Z,155
2018-07-15T09:01:17.324Z,150
2018-07-15T09:01:57.922Z,155
2018-07-15T09:02:38.492Z,145
2018-07-15T09:03:19.120Z,195
2018-07-15T09:03:59.631Z,190
2018-07-15T09:04:40.191Z,185
2018-07-15T09:05:20.767Z,185
2018-07-15T09:06:01.362Z,185
2018-07-15T09:06:41.930Z,185
2018-07-15T09:07:22.496Z,175
2018-07-15T09:08:03.075Z,175
2018-07-15T09:08:43.649Z,175
2018-07-15T09:09:24.252Z,170
2018-07-15T09:10:04.789Z,170
2018-07-15T09:10:45.365Z,170
2018-07-15T09:11:25.925Z,170
2018-07-15T09:12:06.509Z,165
2018-07-15T09:12:47.141Z,165
2018-07-15T09:13:27.724Z,160
2018-07-15T09:14:08.296Z,160
2018-07-15T09:14:48.851Z,150
2018-07-15T09:15:29.423Z,155
2018-07-15T09:16:09.994Z,150
2018-07-15T09:16:50.569Z,150
2018-07-15T09:17:31.207Z,150
2018-07-15T09:18:11.784Z,150
2018-07-15T09:18:52.317Z,150
2018-07-15T09:19:32.889Z,145
2018-07-15T09:20:13.468Z,145
2018-07-15T09:20:54.015Z,140
2018-07-15T09:21:34.601Z,140
2018-07-15T09:22:15.208Z,135
2018-07-15T09:22:55.762Z,140
2018-07-15T09:23:36.331Z,130
2018-07-15T09:24:16.892Z,125
2018-07-15T09:24:57.469Z,125
2018-07-15T09:25:38.043Z,125
2018-07-15T09:26:18.618Z,125
2018-07-15T09:26:59.178Z,125
2018-07-15T09:27:39.772Z,125
2018-07-15T09:28:20.325Z,125
2018-07-15T09:29:00.894Z,125
2018-07-15T09:29:41.457Z,120
2018-07-15T09:30:22.019Z,120
2018-07-15T09:31:02.600Z,120
2018-07-15T09:31:43.160Z,120